Time;durP1;ratioP1;P1;durP2;ratioP2;P2;SDS_P1;SDS_P2;PMS_P1;PMS_P2;Temp;Humidity;BMP_temperature;BMP_pressure;BME280_temperature;BME280_humidity;BME280_pressure;Samples;Min_cycle;Max_cycle;Signal;HPM_P1;HPM_P2
2022/03/13 00:00:47;;;;;;;150.93;37.72;;;;;;;-4.14;66.22;98878.84;4169477;28;19917;-71
2022/03/13 00:02:47;;;;;;;125.40;32.92;;;;;;;-4.22;67.09;98868.59;4169414;28;20441;-71
2022/03/13 00:04:51;;;;;;;107.70;32.25;;;;;;;-4.27;67.79;98880.22;4169416;28;20052;-71
2022/03/13 00:06:51;;;;;;;128.45;36.65;;;;;;;-4.31;68.47;98875.63;4169201;28;20045;-71
2022/03/13 00:08:57;;;;;;;81.00;30.13;;;;;;;-4.35;69.06;98883.47;4169585;28;20041;-71
2022/03/13 00:11:17;;;;;;;75.57;25.85;;;;;;;-4.37;68.26;98879.44;4169631;28;20048;-71
2022/03/13 00:13:19;;;;;;;64.05;22.67;;;;;;;-4.38;68.87;98875.13;4184622;28;20453;-71
2022/03/13 00:15:32;;;;;;;62.17;23.17;;;;;;;-4.37;67.65;98869.44;4173408;28;20459;-71
2022/03/13 00:17:33;;;;;;;63.33;23.25;;;;;;;-4.40;69.13;98869.16;4168749;28;20075;-71
2022/03/13 00:19:33;;;;;;;28.30;12.45;;;;;;;-4.47;70.45;98869.41;4174187;28;20045;-71
2022/03/13 00:21:35;;;;;;;32.72;15.15;;;;;;;-4.53;70.36;98873.22;4182789;28;20056;-71
2022/03/13 00:23:35;;;;;;;35.47;14.35;;;;;;;-4.61;70.81;98876.47;4184165;28;20040;-71
2022/03/13 00:25:36;;;;;;;39.17;16.38;;;;;;;-4.63;69.31;98865.13;4173897;28;20059;-71
2022/03/13 00:27:36;;;;;;;34.35;15.77;;;;;;;-4.69;70.17;98867.00;4176770;28;20062;-71
2022/03/13 00:29:37;;;;;;;43.53;17.98;;;;;;;-4.73;70.80;98865.09;4176333;28;20033;-71
2022/03/13 00:31:37;;;;;;;40.35;17.38;;;;;;;-4.81;70.62;98856.44;4170467;28;20076;-71
2022/03/13 00:33:37;;;;;;;41.67;17.63;;;;;;;-4.76;67.92;98860.25;4169818;28;20045;-71
2022/03/13 00:35:38;;;;;;;44.53;17.45;;;;;;;-4.80;69.20;98862.66;4185880;28;20053;-71
2022/03/13 00:37:38;;;;;;;43.50;19.17;;;;;;;-4.83;69.71;98874.00;4186845;28;20057;-71
2022/03/13 00:39:40;;;;;;;43.45;17.85;;;;;;;-4.85;69.93;98873.47;4177051;28;20045;-71
2022/03/13 00:41:41;;;;;;;54.17;20.33;;;;;;;-4.89;70.45;98872.34;4172489;28;20044;-71
2022/03/13 00:43:41;;;;;;;42.08;17.13;;;;;;;-4.92;70.35;98872.91;4172651;28;20048;-71
2022/03/13 00:45:41;;;;;;;33.53;16.45;;;;;;;-4.99;71.42;98872.34;4172161;28;20144;-71
2022/03/13 00:47:42;;;;;;;40.28;15.38;;;;;;;-5.03;71.77;98868.56;4170420;28;20509;-71
2022/03/13 00:49:42;;;;;;;30.50;13.55;;;;;;;-5.09;71.44;98860.47;4178293;28;20476;-71
2022/03/13 00:51:42;;;;;;;25.42;12.35;;;;;;;-5.10;72.06;98858.84;4177584;28;20037;-71
2022/03/13 00:53:43;;;;;;;28.40;12.23;;;;;;;-5.14;71.81;98854.22;4172155;28;20446;-71
2022/03/13 00:55:44;;;;;;;27.35;12.02;;;;;;;-5.16;71.34;98851.81;4183405;28;20048;-71
2022/03/13 00:57:44;;;;;;;44.10;19.25;;;;;;;-5.16;70.37;98851.00;4186866;28;20131;-71
2022/03/13 00:59:45;;;;;;;64.07;24.73;;;;;;;-5.21;71.17;98857.22;4171941;28;20132;-71
2022/03/13 01:01:46;;;;;;;44.65;19.92;;;;;;;-5.28;71.74;98859.34;4172044;28;20785;-71
2022/03/13 01:03:50;;;;;;;33.85;15.23;;;;;;;-5.31;72.65;98859.84;4172127;28;20045;-71
2022/03/13 01:05:50;;;;;;;34.70;14.23;;;;;;;-5.35;73.08;98850.69;4172390;28;20053;-71
2022/03/13 01:07:51;;;;;;;40.00;15.50;;;;;;;-5.34;72.79;98857.69;4171275;28;20044;-71
2022/03/13 01:09:52;;;;;;;50.90;20.38;;;;;;;-5.31;73.21;98853.66;4172259;28;20040;-71
2022/03/13 01:11:52;;;;;;;36.42;17.67;;;;;;;-5.30;73.43;98852.56;4177949;28;20406;-71
2022/03/13 01:13:54;;;;;;;32.28;16.10;;;;;;;-5.34;73.10;98849.59;4187708;28;20079;-71
2022/03/13 01:15:59;;;;;;;36.03;15.18;;;;;;;-5.38;73.05;98856.59;4186562;28;20480;-71
2022/03/13 01:17:59;;;;;;;25.30;11.52;;;;;;;-5.43;73.66;98856.59;4183692;28;20056;-71
2022/03/13 01:20:02;;;;;;;20.13;11.25;;;;;;;-5.48;73.85;98846.59;4171577;28;20041;-71
2022/03/13 01:22:03;;;;;;;;;;;;;;;-5.43;74.69;98851.19;4172469;28;20265;-71
2022/03/13 01:24:06;;;;;;;18.63;9.63;;;;;;;-5.50;74.34;98854.13;4171883;28;20237;-71
2022/03/13 01:26:21;;;;;;;22.58;10.50;;;;;;;-5.55;73.96;98856.81;4184972;28;20071;-71
2022/03/13 01:28:22;;;;;;;18.60;10.05;;;;;;;-5.64;74.50;98844.91;4177197;28;20447;-71
2022/03/13 01:30:22;;;;;;;20.75;10.52;;;;;;;-5.68;74.41;98847.34;4171201;28;20050;-71
2022/03/13 01:32:23;;;;;;;18.40;10.43;;;;;;;-5.73;73.71;98844.59;4175776;28;20036;-71
2022/03/13 01:34:32;;;;;;;16.13;9.23;;;;;;;-5.76;73.92;98845.13;4172057;28;20508;-71
2022/03/13 01:36:33;;;;;;;17.98;11.25;;;;;;;-5.80;75.19;98843.22;4171230;28;20131;-71
2022/03/13 01:38:33;;;;;;;20.73;11.00;;;;;;;-5.81;75.61;98847.81;4175626;28;20037;-71
2022/03/13 01:40:33;;;;;;;17.42;9.90;;;;;;;-5.82;74.56;98840.78;4171747;28;20068;-71
2022/03/13 01:42:34;;;;;;;17.65;8.88;;;;;;;-5.82;74.80;98839.97;4171486;28;20052;-71
2022/03/13 01:44:34;;;;;;;24.35;11.25;;;;;;;-5.84;74.52;98837.56;4171038;28;20424;-71
2022/03/13 01:46:35;;;;;;;16.23;9.27;;;;;;;-5.85;75.01;98832.44;4171159;28;20091;-71
2022/03/13 01:48:51;;;;;;;16.45;10.00;;;;;;;-5.91;75.03;98828.94;4171287;28;20140;-71
2022/03/13 01:50:52;;;;;;;22.30;10.10;;;;;;;-5.89;76.22;98834.00;4171382;28;20048;-71
2022/03/13 01:52:52;;;;;;;20.90;9.38;;;;;;;-5.93;76.55;98830.28;4173957;28;20052;-71
2022/03/13 01:54:55;;;;;;;17.92;8.98;;;;;;;-5.93;76.49;98841.84;4177322;28;20086;-71
2022/03/13 01:56:55;;;;;;;13.27;8.40;;;;;;;-5.94;75.61;98837.53;4171049;28;20473;-71
2022/03/13 01:58:56;;;;;;;20.00;9.10;;;;;;;-5.95;75.84;98834.03;4171212;28;20047;-71
2022/03/13 02:00:56;;;;;;;16.20;7.90;;;;;;;-5.95;75.40;98838.63;4177181;28;20048;-71
2022/03/13 02:02:56;;;;;;;16.80;9.07;;;;;;;-5.96;74.94;98839.66;4185815;28;20357;-71
2022/03/13 02:04:57;;;;;;;14.82;8.57;;;;;;;-6.03;74.78;98829.16;4186092;28;20526;-71
2022/03/13 02:06:58;;;;;;;14.60;8.38;;;;;;;-6.05;74.18;98833.16;4176420;28;20074;-71
2022/03/13 02:08:59;;;;;;;16.92;8.50;;;;;;;-5.87;73.85;98831.91;4171156;28;20037;-71
2022/03/13 02:10:59;;;;;;;19.13;9.80;;;;;;;-5.93;74.07;98828.38;4171911;28;20044;-71
2022/03/13 02:13:00;;;;;;;17.42;9.10;;;;;;;-5.92;73.95;98832.69;4184220;28;20344;-71
2022/03/13 02:15:00;;;;;;;15.27;9.00;;;;;;;-5.83;71.82;98823.00;4172223;28;20053;-71
2022/03/13 02:17:01;;;;;;;15.57;8.60;;;;;;;-5.82;72.63;98827.31;4170780;28;20371;-71
2022/03/13 02:19:02;;;;;;;16.30;9.15;;;;;;;-5.86;73.90;98826.22;4171039;28;20095;-71
2022/03/13 02:21:03;;;;;;;14.75;8.05;;;;;;;-5.88;74.82;98825.66;4170919;28;20037;-71
2022/03/13 02:23:15;;;;;;;18.43;7.97;;;;;;;-5.91;75.59;98828.94;4171161;28;20143;-71
2022/03/13 02:25:21;;;;;;;18.77;9.35;;;;;;;-6.02;75.08;98820.00;4184186;28;20079;-71
2022/03/13 02:27:25;;;;;;;14.00;8.55;;;;;;;-6.14;75.36;98819.38;4184676;28;20040;-71
2022/03/13 02:29:26;;;;;;;16.33;9.40;;;;;;;-6.22;76.85;98823.38;4176933;28;20137;-71
2022/03/13 02:31:32;;;;;;;30.27;12.77;;;;;;;-6.28;75.98;98824.44;4185028;28;20389;-71
2022/03/13 02:33:32;;;;;;;28.33;14.70;;;;;;;-6.23;77.39;98819.06;4179307;28;20311;-71
2022/03/13 02:35:33;;;;;;;16.55;9.63;;;;;;;-6.27;77.21;98819.84;4180271;28;20439;-71
2022/03/13 02:37:40;;;;;;;15.32;7.72;;;;;;;-6.31;76.78;98829.50;4170217;28;20076;-71
2022/03/13 02:39:40;;;;;;;14.02;8.63;;;;;;;-6.37;77.74;98826.00;4171050;28;20560;-71
2022/03/13 02:41:41;;;;;;;16.20;8.15;;;;;;;-6.42;77.63;98822.44;4169303;28;20298;-71
2022/03/13 02:43:41;;;;;;;14.93;7.80;;;;;;;-6.49;77.67;98819.97;4170409;28;20182;-71
2022/03/13 02:45:42;;;;;;;13.30;7.70;;;;;;;-6.58;76.54;98806.19;4170623;28;20052;-71
2022/03/13 02:47:43;;;;;;;14.10;8.32;;;;;;;-6.62;76.35;98810.47;4169742;28;20041;-71
2022/03/13 02:49:43;;;;;;;12.77;8.52;;;;;;;-6.66;76.45;98803.97;4176027;28;20032;-71
2022/03/13 02:51:44;;;;;;;17.77;9.18;;;;;;;-6.69;76.67;98807.19;4170741;28;20055;-71
2022/03/13 02:53:44;;;;;;;21.13;10.85;;;;;;;-6.70;76.09;98802.03;4170772;28;20087;-71
2022/03/13 02:55:45;;;;;;;19.90;10.60;;;;;;;-6.72;76.27;98804.19;4170505;28;20329;-71
2022/03/13 02:57:45;;;;;;;19.63;10.02;;;;;;;-6.72;74.76;98809.56;4174805;28;20300;-71
2022/03/13 02:59:46;;;;;;;18.73;9.45;;;;;;;-6.71;75.11;98797.72;4175237;28;20118;-71
2022/03/13 03:01:47;;;;;;;18.90;9.60;;;;;;;-6.68;74.25;98799.91;4176370;28;20071;-71
2022/03/13 03:03:48;;;;;;;18.27;10.38;;;;;;;-6.67;73.96;98798.84;4169690;28;20053;-71
2022/03/13 03:05:50;;;;;;;18.00;9.50;;;;;;;-6.60;73.33;98804.81;4170637;28;20099;-71
2022/03/13 03:07:50;;;;;;;15.70;9.07;;;;;;;-6.53;71.11;98814.31;4179509;28;20040;-71
2022/03/13 03:09:50;;;;;;;18.65;8.80;;;;;;;-6.57;71.58;98802.41;4181877;28;20303;-71
2022/03/13 03:11:51;;;;;;;19.27;10.20;;;;;;;-6.57;72.73;98805.09;4175595;28;20591;-71
2022/03/13 03:13:51;;;;;;;16.05;8.80;;;;;;;-6.60;72.26;98800.25;4183838;28;20079;-71
2022/03/13 03:15:51;;;;;;;16.65;8.68;;;;;;;-6.64;72.59;98803.72;4178399;28;20044;-71
2022/03/13 03:17:53;;;;;;;16.25;9.68;;;;;;;-6.64;74.19;98801.81;4180193;28;20123;-71
2022/03/13 03:19:53;;;;;;;14.52;8.95;;;;;;;-6.67;73.15;98806.94;4181558;28;20049;-71
2022/03/13 03:21:53;;;;;;;17.48;9.25;;;;;;;-6.66;73.13;98811.22;4184972;28;20045;-71
2022/03/13 03:23:54;;;;;;;20.80;9.18;;;;;;;-6.59;73.03;98811.81;4183518;28;20040;-71
2022/03/13 03:25:54;;;;;;;17.73;9.43;;;;;;;-6.61;72.83;98804.00;4169669;28;20045;-71
2022/03/13 03:27:57;;;;;;;18.92;10.30;;;;;;;-6.61;72.21;98805.91;4169455;28;20057;-71
2022/03/13 03:30:01;;;;;;;;;;;;;;;-6.65;73.50;98810.97;4170593;28;20048;-71
2022/03/13 03:32:02;;;;;;;15.68;9.27;;;;;;;-6.69;73.98;98809.06;4169825;28;20253;-71
2022/03/13 03:34:07;;;;;;;14.90;8.90;;;;;;;-6.74;73.47;98809.03;4170132;28;20182;-71
2022/03/13 03:36:14;;;;;;;19.60;9.38;;;;;;;-6.81;73.46;98807.34;4169981;28;20178;-71
2022/03/13 03:38:14;;;;;;;23.25;11.18;;;;;;;-6.82;74.84;98803.03;4168993;28;20122;-71
2022/03/13 03:40:15;;;;;;;24.70;10.65;;;;;;;-6.85;75.31;98802.75;4169744;28;20464;-71
2022/03/13 03:42:15;;;;;;;21.55;10.13;;;;;;;-6.90;75.76;98808.88;4173146;28;20445;-71
2022/03/13 03:44:16;;;;;;;20.90;9.25;;;;;;;-6.96;76.81;98803.72;4169395;28;20082;-71
2022/03/13 03:46:17;;;;;;;18.63;8.88;;;;;;;-7.00;76.58;98811.50;4169633;28;20029;-71
2022/03/13 03:48:20;;;;;;;15.77;7.90;;;;;;;-6.97;75.43;98802.09;4169213;28;20091;-71
2022/03/13 03:50:21;;;;;;;12.85;7.32;;;;;;;-7.07;76.80;98809.00;4170143;28;20121;-71
2022/03/13 03:52:21;;;;;;;18.88;6.82;;;;;;;-7.17;77.51;98805.44;4179597;28;20032;-71
2022/03/13 03:54:22;;;;;;;11.65;7.22;;;;;;;-7.26;77.89;98804.28;4172672;28;20037;-71
2022/03/13 03:56:22;;;;;;;15.27;7.72;;;;;;;-7.29;77.90;98804.75;4183569;28;20089;-71
2022/03/13 03:58:22;;;;;;;13.60;6.90;;;;;;;-7.37;77.73;98812.22;4179371;28;20491;-71
2022/03/13 04:00:26;;;;;;;13.32;7.20;;;;;;;-7.37;78.03;98811.41;4169015;28;20049;-71
2022/03/13 04:02:27;;;;;;;14.02;6.72;;;;;;;-7.33;77.58;98801.78;4174911;28;20112;-71
2022/03/13 04:04:27;;;;;;;13.18;7.63;;;;;;;-7.32;78.02;98811.47;4176289;28;20084;-71
2022/03/13 04:06:27;;;;;;;13.30;7.15;;;;;;;-7.33;78.06;98811.72;4170620;28;20103;-71
2022/03/13 04:08:29;;;;;;;18.10;7.38;;;;;;;-7.28;75.53;98817.13;4169343;28;20127;-71
2022/03/13 04:10:29;;;;;;;13.57;7.40;;;;;;;-7.31;76.49;98810.41;4177412;28;20144;-71
2022/03/13 04:12:30;;;;;;;14.80;6.47;;;;;;;-7.32;77.74;98819.53;4184424;28;20447;-71
2022/03/13 04:14:31;;;;;;;13.57;7.10;;;;;;;-7.29;76.96;98815.50;4186103;28;20361;-71
2022/03/13 04:16:31;;;;;;;14.65;7.35;;;;;;;-7.27;76.91;98814.22;4172651;28;20190;-71
2022/03/13 04:18:32;;;;;;;10.85;6.68;;;;;;;-7.26;76.75;98817.72;4180731;28;20055;-71
2022/03/13 04:20:32;;;;;;;11.77;7.25;;;;;;;-7.32;77.16;98814.16;4178509;28;20033;-71
2022/03/13 04:22:33;;;;;;;13.80;7.30;;;;;;;-7.35;77.23;98820.06;4174743;28;20087;-71
2022/03/13 04:24:33;;;;;;;14.07;6.82;;;;;;;-7.38;78.17;98815.97;4172940;28;20835;-71
2022/03/13 04:26:33;;;;;;;15.30;7.38;;;;;;;-7.36;77.78;98805.81;4177948;28;20064;-71
2022/03/13 04:28:33;;;;;;;12.75;7.25;;;;;;;-7.32;77.17;98807.97;4178628;28;20047;-71
2022/03/13 04:30:35;;;;;;;12.75;7.18;;;;;;;-7.33;76.76;98806.34;4187206;28;20048;-71
2022/03/13 04:32:35;;;;;;;16.17;7.35;;;;;;;-7.27;75.47;98813.41;4173995;28;20037;-71
2022/03/13 04:34:36;;;;;;;15.18;8.25;;;;;;;-7.24;75.78;98816.38;4172671;28;20048;-71
2022/03/13 04:36:37;;;;;;;12.45;7.20;;;;;;;-7.22;76.05;98813.44;4177933;28;20048;-71
2022/03/13 04:38:38;;;;;;;12.48;7.10;;;;;;;-7.23;75.07;98815.31;4172656;28;20366;-71
2022/03/13 04:40:38;;;;;;;13.13;6.65;;;;;;;-7.32;74.91;98816.03;4172467;28;20376;-71
2022/03/13 04:42:38;;;;;;;15.40;7.13;;;;;;;-7.38;75.16;98809.78;4179161;28;20453;-71
2022/03/13 04:44:39;;;;;;;12.95;7.22;;;;;;;-7.44;75.20;98802.75;4172429;28;20314;-71
2022/03/13 04:46:40;;;;;;;13.05;7.70;;;;;;;-7.51;75.39;98797.56;4171899;28;20498;-71
2022/03/13 04:48:40;;;;;;;15.73;8.27;;;;;;;-7.52;75.82;98806.69;4172563;28;20528;-71
2022/03/13 04:50:41;;;;;;;12.73;7.50;;;;;;;-7.56;76.96;98802.88;4172334;28;20049;-71
2022/03/13 04:52:41;;;;;;;19.55;8.70;;;;;;;-7.53;75.93;98806.94;4184443;28;20044;-71
2022/03/13 04:54:42;;;;;;;15.50;7.50;;;;;;;-7.56;76.15;98808.25;4188318;28;20087;-71
2022/03/13 04:56:42;;;;;;;14.80;7.55;;;;;;;-7.58;77.02;98804.22;4179143;28;20523;-71
2022/03/13 04:58:42;;;;;;;13.20;7.05;;;;;;;-7.61;76.57;98804.69;4172596;28;20501;-71
2022/03/13 05:00:46;;;;;;;15.63;8.27;;;;;;;-7.54;76.77;98810.69;4172278;28;20076;-71
2022/03/13 05:02:46;;;;;;;16.08;8.00;;;;;;;-7.49;75.75;98808.06;4171672;28;20041;-71
2022/03/13 05:04:47;;;;;;;15.27;7.57;;;;;;;-7.48;74.91;98810.50;4171900;28;20033;-71
2022/03/13 05:06:47;;;;;;;12.63;7.40;;;;;;;-7.55;74.61;98801.00;4175979;28;20043;-71
2022/03/13 05:08:49;;;;;;;12.05;7.90;;;;;;;-7.63;75.00;98813.00;4187873;28;20040;-71
2022/03/13 05:10:50;;;;;;;12.85;7.47;;;;;;;-7.68;76.02;98821.03;4176716;28;20051;-71
2022/03/13 05:12:50;;;;;;;14.52;8.68;;;;;;;-7.75;75.66;98821.22;4170963;28;20044;-71
2022/03/13 05:14:50;;;;;;;17.65;8.18;;;;;;;-7.80;76.21;98826.53;4169878;28;20045;-71
2022/03/13 05:16:51;;;;;;;16.77;7.40;;;;;;;-7.77;77.01;98841.34;4171906;28;20052;-71
2022/03/13 05:18:51;;;;;;;14.45;7.97;;;;;;;-7.80;76.89;98834.56;4173822;28;20041;-71
2022/03/13 05:20:51;;;;;;;13.23;6.93;;;;;;;-7.84;77.30;98836.16;4175507;28;20098;-71
2022/03/13 05:22:52;;;;;;;14.57;7.47;;;;;;;-7.85;78.14;98833.72;4175302;28;20110;-71
2022/03/13 05:24:52;;;;;;;13.60;6.90;;;;;;;-7.87;78.68;98838.50;4178054;28;20153;-71
2022/03/13 05:26:53;;;;;;;14.05;7.15;;;;;;;-7.93;78.26;98838.47;4174851;28;20044;-71
2022/03/13 05:28:53;;;;;;;13.32;6.70;;;;;;;-7.93;78.20;98843.03;4176612;28;20091;-71
2022/03/13 05:30:53;;;;;;;11.70;6.97;;;;;;;-7.97;78.67;98839.19;4176151;28;20072;-71
2022/03/13 05:32:56;;;;;;;12.05;6.03;;;;;;;-7.99;79.22;98846.69;4174743;28;20345;-71
2022/03/13 05:34:57;;;;;;;10.07;5.85;;;;;;;-8.02;79.37;98839.97;4176718;28;20052;-71
2022/03/13 05:36:57;;;;;;;12.68;6.47;;;;;;;-8.03;79.67;98838.31;4175749;28;20654;-71
2022/03/13 05:38:57;;;;;;;11.02;6.03;;;;;;;-8.07;79.83;98833.69;4175960;28;20036;-71
2022/03/13 05:40:58;;;;;;;11.38;6.15;;;;;;;-8.11;79.83;98833.38;4177302;28;20578;-71
2022/03/13 05:42:59;;;;;;;11.68;6.20;;;;;;;-8.12;80.24;98837.13;4176712;28;20044;-71
2022/03/13 05:44:59;;;;;;;13.07;6.78;;;;;;;-8.11;80.65;98843.28;4175780;28;20139;-71
2022/03/13 05:46:59;;;;;;;14.23;6.88;;;;;;;-8.05;80.51;98836.94;4176856;28;20044;-71
2022/03/13 05:49:00;;;;;;;13.73;7.38;;;;;;;-7.97;79.66;98848.06;4176353;28;20791;-71
2022/03/13 05:51:00;;;;;;;13.50;6.78;;;;;;;-7.93;78.34;98846.53;4176191;28;20039;-71
2022/03/13 05:53:01;;;;;;;19.23;8.73;;;;;;;-7.92;79.69;98848.16;4176807;28;20413;-71
2022/03/13 05:55:01;;;;;;;17.88;8.38;;;;;;;-7.97;80.78;98845.38;4170043;28;20135;-71
2022/03/13 05:57:04;;;;;;;17.90;8.43;;;;;;;-8.03;81.23;98849.06;4178461;28;20125;-71
2022/03/13 05:59:04;;;;;;;;;;;;;;;-8.05;80.97;98845.00;4185526;28;20067;-71
2022/03/13 06:01:05;;;;;;;13.27;6.18;;;;;;;-8.06;80.21;98846.88;4098493;28;20011;-71
2022/03/13 06:03:06;;;;;;;13.70;6.47;;;;;;;-8.07;79.59;98847.94;4154241;28;20041;-71
2022/03/13 06:05:09;;;;;;;14.32;7.53;;;;;;;-8.07;79.40;98841.75;4154943;28;20346;-71
2022/03/13 06:07:10;;;;;;;16.15;6.97;;;;;;;-8.00;79.55;98847.75;4167887;28;20294;-71
2022/03/13 06:09:10;;;;;;;15.38;7.97;;;;;;;-7.97;78.96;98852.63;4167103;28;20050;-71
2022/03/13 06:11:10;;;;;;;15.05;7.35;;;;;;;-7.85;79.15;98841.78;4166196;28;20120;-71
2022/03/13 06:13:10;;;;;;;13.40;7.20;;;;;;;-7.79;77.48;98851.50;4154170;28;20055;-71
2022/03/13 06:15:12;;;;;;;13.98;7.25;;;;;;;-7.73;77.37;98848.63;4168307;28;20045;-71
2022/03/13 06:17:13;;;;;;;14.95;8.32;;;;;;;-7.57;77.41;98851.50;4172625;28;20172;-71
2022/03/13 06:19:13;;;;;;;11.95;7.38;;;;;;;-7.52;75.73;98849.69;4173268;28;20076;-71
2022/03/13 06:21:14;;;;;;;13.63;8.05;;;;;;;-7.40;75.73;98860.31;4169062;28;20128;-71
2022/03/13 06:23:16;;;;;;;19.50;8.95;;;;;;;-7.32;75.57;98850.97;4175540;28;20064;-71
2022/03/13 06:25:17;;;;;;;16.38;9.02;;;;;;;-7.30;75.33;98856.91;4179477;28;20047;-71
2022/03/13 06:27:17;;;;;;;20.48;9.98;;;;;;;-7.25;75.20;98849.72;4174513;28;20036;-71
2022/03/13 06:29:17;;;;;;;25.45;12.27;;;;;;;-7.19;75.21;98853.28;4174184;28;20405;-70
2022/03/13 06:31:18;;;;;;;20.13;9.85;;;;;;;-7.17;75.17;98861.91;4169753;28;20080;-71
2022/03/13 06:33:18;;;;;;;17.13;9.85;;;;;;;-7.08;75.25;98852.31;4174499;28;20123;-71
2022/03/13 06:35:21;;;;;;;17.42;9.95;;;;;;;-7.01;74.94;98860.19;4184764;28;20351;-71
2022/03/13 06:37:21;;;;;;;17.65;9.35;;;;;;;-7.02;74.03;98851.31;4185237;28;20055;-71
2022/03/13 06:39:22;;;;;;;17.52;9.38;;;;;;;-6.94;74.57;98856.22;4172405;28;20304;-71
2022/03/13 06:41:22;;;;;;;16.25;9.40;;;;;;;-6.86;74.06;98866.50;4169312;28;20052;-71
2022/03/13 06:43:23;;;;;;;24.50;10.32;;;;;;;-6.82;73.68;98856.84;4175327;28;20033;-71
2022/03/13 06:45:24;;;;;;;17.42;9.73;;;;;;;-6.77;74.44;98864.16;4173202;28;20037;-71
2022/03/13 06:47:24;;;;;;;15.70;8.95;;;;;;;-6.69;74.12;98868.28;4169740;28;20096;-71
2022/03/13 06:49:25;;;;;;;18.45;9.65;;;;;;;-6.62;74.65;98856.22;4177066;28;20064;-71
2022/03/13 06:51:25;;;;;;;20.17;10.05;;;;;;;-6.51;74.36;98852.53;4174601;28;20125;-71
2022/03/13 06:53:26;;;;;;;19.77;10.25;;;;;;;-6.47;74.08;98858.19;4173743;28;20049;-71
2022/03/13 06:55:27;;;;;;;22.88;11.35;;;;;;;-6.42;74.47;98852.06;4172409;28;20609;-71
2022/03/13 06:57:27;;;;;;;23.88;11.20;;;;;;;-6.35;75.13;98860.72;4170056;28;20056;-71
2022/03/13 06:59:28;;;;;;;16.23;9.50;;;;;;;-6.29;74.41;98862.38;4174392;28;20118;-71
2022/03/13 07:01:37;;;;;;;19.83;11.02;;;;;;;-6.24;73.71;98860.53;4172302;28;20396;-71
2022/03/13 07:03:37;;;;;;;19.15;9.63;;;;;;;-6.19;73.61;98853.56;4174698;28;20059;-71
2022/03/13 07:05:38;;;;;;;19.80;10.65;;;;;;;-6.13;74.31;98852.50;4175247;28;20132;-71
2022/03/13 07:07:38;;;;;;;22.95;11.40;;;;;;;-6.03;74.15;98857.97;4174812;28;20079;-71
2022/03/13 07:09:39;;;;;;;22.05;10.77;;;;;;;-5.91;72.84;98849.69;4173600;28;20120;-71
2022/03/13 07:11:46;;;;;;;19.45;10.75;;;;;;;-5.85;71.94;98854.81;4173514;28;20378;-71
2022/03/13 07:13:47;;;;;;;21.55;11.05;;;;;;;-5.79;72.81;98844.84;4175350;28;20072;-71
2022/03/13 07:15:48;;;;;;;25.58;10.98;;;;;;;-5.74;73.23;98845.69;4175132;28;20308;-71
2022/03/13 07:17:48;;;;;;;23.42;11.95;;;;;;;-5.68;73.04;98852.72;4172534;28;20201;-71
2022/03/13 07:19:48;;;;;;;27.35;13.07;;;;;;;-5.60;74.54;98851.41;4173608;28;20408;-71
2022/03/13 07:21:49;;;;;;;24.27;12.18;;;;;;;-5.52;75.01;98850.91;4173857;28;20396;-71
2022/03/13 07:23:50;;;;;;;24.98;11.55;;;;;;;-5.37;75.97;98864.44;4170545;28;20079;-71
2022/03/13 07:25:51;;;;;;;19.23;9.98;;;;;;;-5.25;75.38;98849.91;4174538;28;20127;-71
2022/03/13 07:27:51;;;;;;;20.02;10.10;;;;;;;-5.08;75.38;98853.19;4171144;28;20056;-71
2022/03/13 07:29:51;;;;;;;24.33;9.73;;;;;;;-4.94;75.00;98854.28;4170637;28;20047;-71
2022/03/13 07:31:52;;;;;;;22.05;10.38;;;;;;;-4.78;74.52;98848.91;4167762;28;20117;-71
2022/03/13 07:33:52;;;;;;;19.92;9.52;;;;;;;-4.65;73.81;98851.88;4175893;28;20494;-71
2022/03/13 07:35:55;;;;;;;15.52;8.23;;;;;;;-4.55;73.82;98851.91;4176542;28;20132;-71
2022/03/13 07:37:55;;;;;;;14.82;8.55;;;;;;;-4.48;73.50;98850.78;4169103;28;20049;-71
2022/03/13 07:39:56;;;;;;;18.48;9.95;;;;;;;-4.35;72.90;98852.94;4175353;28;20543;-71
2022/03/13 07:41:56;;;;;;;20.88;10.77;;;;;;;-4.20;71.14;98846.72;4169704;28;20132;-71
2022/03/13 07:43:56;;;;;;;22.15;11.93;;;;;;;-4.18;70.97;98848.06;4169884;28;20412;-71
2022/03/13 07:45:57;;;;;;;13.02;7.53;;;;;;;-4.05;71.92;98857.50;4169447;28;20056;-71
2022/03/13 07:47:59;;;;;;;15.82;7.38;;;;;;;-3.98;71.19;98847.19;4168859;28;20048;-71
2022/03/13 07:50:00;;;;;;;12.80;7.70;;;;;;;-3.93;70.45;98851.81;4176318;28;20494;-71
2022/03/13 07:52:00;;;;;;;13.13;7.97;;;;;;;-3.87;69.25;98843.41;4176236;28;20049;-71
2022/03/13 07:54:02;;;;;;;10.75;7.15;;;;;;;-3.78;68.10;98846.34;4170820;28;20041;-71
2022/03/13 07:56:02;;;;;;;13.98;7.38;;;;;;;-3.71;66.85;98844.19;4178079;28;20028;-71
2022/03/13 07:58:03;;;;;;;15.32;8.02;;;;;;;-3.64;66.43;98850.09;4170269;28;20243;-71
2022/03/13 08:00:03;;;;;;;15.88;8.23;;;;;;;-3.59;66.29;98846.56;4168737;28;20040;-71
2022/03/13 08:02:04;;;;;;;22.52;10.13;;;;;;;-3.54;66.01;98839.25;4175999;28;20459;-71
2022/03/13 08:04:05;;;;;;;36.03;13.55;;;;;;;-3.43;65.66;98846.22;4171254;28;20469;-71
2022/03/13 08:06:05;;;;;;;30.23;13.15;;;;;;;-3.32;65.68;98846.97;4175789;28;20017;-71
2022/03/13 08:08:05;;;;;;;33.10;14.32;;;;;;;-3.21;64.92;98845.84;4169000;28;20033;-71
2022/03/13 08:10:06;;;;;;;27.70;12.32;;;;;;;-3.07;63.79;98848.72;4172058;28;21410;-71
2022/03/13 08:12:07;;;;;;;20.92;10.57;;;;;;;-2.98;64.44;98838.94;4170487;28;20044;-71
2022/03/13 08:14:08;;;;;;;21.17;8.70;;;;;;;-2.88;64.50;98838.88;4174536;28;20032;-71
2022/03/13 08:16:09;;;;;;;14.45;8.10;;;;;;;-2.71;63.42;98834.97;4170803;28;20027;-71
2022/03/13 08:18:10;;;;;;;20.67;8.63;;;;;;;-2.61;63.60;98838.41;4171607;28;20441;-71
2022/03/13 08:20:11;;;;;;;13.32;7.25;;;;;;;-2.50;63.90;98838.31;4171258;28;20021;-71
2022/03/13 08:22:12;;;;;;;11.73;6.68;;;;;;;-2.41;63.06;98834.69;4167866;28;20036;-71
2022/03/13 08:24:15;;;;;;;11.20;7.05;;;;;;;-2.31;62.22;98842.75;4174221;28;20017;-71
2022/03/13 08:26:15;;;;;;;13.70;7.20;;;;;;;-2.22;62.40;98840.25;4170783;28;20067;-71
2022/03/13 08:28:15;;;;;;;15.43;6.70;;;;;;;-2.13;62.12;98843.94;4167597;28;20048;-71
2022/03/13 08:30:16;;;;;;;17.88;7.93;;;;;;;-2.00;61.59;98839.72;4168905;28;20079;-71
2022/03/13 08:32:16;;;;;;;20.27;9.15;;;;;;;-1.84;61.66;98841.19;4171851;28;20021;-71
2022/03/13 08:34:17;;;;;;;22.65;8.15;;;;;;;-1.73;60.07;98833.78;4169867;28;20295;-71
2022/03/13 08:36:18;;;;;;;28.52;13.32;;;;;;;-1.61;58.66;98844.19;4177354;28;20436;-71
2022/03/13 08:38:18;;;;;;;23.52;11.73;;;;;;;-1.51;59.04;98830.50;4167307;28;20049;-71
2022/03/13 08:40:18;;;;;;;21.77;9.05;;;;;;;-1.35;58.83;98836.56;4179463;28;20071;-71
2022/03/13 08:42:19;;;;;;;17.05;8.40;;;;;;;-1.27;59.24;98834.00;4172230;28;20079;-71
2022/03/13 08:44:19;;;;;;;14.13;8.35;;;;;;;-1.19;58.45;98840.69;4168603;28;20108;-71
2022/03/13 08:46:19;;;;;;;12.02;6.55;;;;;;;-1.10;57.26;98828.06;4174480;28;20024;-71
2022/03/13 08:48:20;;;;;;;29.63;15.25;;;;;;;-0.95;57.82;98822.41;4168246;28;20064;-71
2022/03/13 08:50:20;;;;;;;21.63;10.63;;;;;;;-0.82;56.97;98820.09;4181002;28;20922;-71
2022/03/13 08:52:21;;;;;;;13.50;7.93;;;;;;;-0.67;56.78;98819.81;4183998;28;20083;-71
2022/03/13 08:54:21;;;;;;;13.52;7.40;;;;;;;-0.54;56.07;98821.78;4179595;28;20085;-71
2022/03/13 08:56:22;;;;;;;12.85;7.20;;;;;;;-0.45;55.94;98820.00;4171780;28;20044;-71
2022/03/13 08:58:22;;;;;;;11.68;6.97;;;;;;;-0.32;55.40;98821.16;4181176;28;20044;-71
2022/03/13 09:00:24;;;;;;;11.18;6.55;;;;;;;-0.20;54.84;98815.25;4174510;28;20049;-71
2022/03/13 09:02:24;;;;;;;10.48;6.53;;;;;;;-0.11;54.85;98819.69;4171541;28;20051;-71
2022/03/13 09:04:24;;;;;;;11.30;6.40;;;;;;;-0.02;54.28;98823.31;4171456;28;20048;-71
2022/03/13 09:06:25;;;;;;;10.25;6.45;;;;;;;0.11;54.07;98812.78;4171205;28;20583;-71
2022/03/13 09:08:25;;;;;;;11.68;6.93;;;;;;;0.21;53.60;98816.09;4176755;28;20041;-71
2022/03/13 09:10:25;;;;;;;10.15;6.20;;;;;;;0.30;53.75;98809.94;4179927;28;20049;-71
2022/03/13 09:12:26;;;;;;;10.40;5.97;;;;;;;0.39;51.79;98817.09;4177235;28;20123;-71
2022/03/13 09:14:26;;;;;;;17.27;8.10;;;;;;;0.44;53.24;98818.94;4171270;28;20033;-71
2022/03/13 09:16:27;;;;;;;12.45;7.05;;;;;;;0.55;50.19;98812.16;4171325;28;20045;-71
2022/03/13 09:18:27;;;;;;;10.73;6.05;;;;;;;0.72;49.61;98820.50;4171090;28;20467;-71
2022/03/13 09:20:28;;;;;;;12.38;6.53;;;;;;;0.95;47.50;98806.94;4171847;28;20364;-71
2022/03/13 09:22:30;;;;;;;8.40;5.20;;;;;;;1.16;47.18;98810.00;4171294;28;20149;-71